createdAt,value
2022-11-23T00:02:08.054Z,100.00
2022-11-23T00:04:34.749Z,100.00
2022-11-23T00:07:01.448Z,100.00
2022-11-23T00:09:28.224Z,100.00
2022-11-23T00:11:54.962Z,100.00
2022-11-23T00:14:21.839Z,100.00
2022-11-23T00:16:48.468Z,100.00
2022-11-23T00:19:15.155Z,100.00
2022-11-23T00:21:41.782Z,100.00
2022-11-23T00:24:12.631Z,100.00
2022-11-23T00:26:39.600Z,100.00
2022-11-23T00:29:06.359Z,100.00
2022-11-23T00:31:33.069Z,100.00
2022-11-23T00:33:59.977Z,100.00
2022-11-23T00:36:27.595Z,100.00
2022-11-23T00:38:54.957Z,100.00
2022-11-23T00:41:25.079Z,100.00
2022-11-23T00:43:52.341Z,100.00
2022-11-23T00:46:18.972Z,100.00
2022-11-23T00:48:47.749Z,100.00
2022-11-23T00:51:17.115Z,100.00
2022-11-23T00:53:44.551Z,100.00
2022-11-23T00:56:11.662Z,100.00
2022-11-23T00:58:38.878Z,100.00
2022-11-23T01:01:09.826Z,100.00
2022-11-23T01:03:38.940Z,100.00
2022-11-23T01:06:23.350Z,100.00
2022-11-23T01:08:56.328Z,100.00
2022-11-23T01:11:24.467Z,100.00
2022-11-23T01:13:51.574Z,100.00
2022-11-23T01:16:24.140Z,100.00
2022-11-23T01:18:55.310Z,100.00
2022-11-23T01:21:24.175Z,100.00
2022-11-23T01:23:51.384Z,100.00
2022-11-23T01:26:18.448Z,100.00
2022-11-23T01:28:45.536Z,100.00
2022-11-23T01:31:17.865Z,100.00
2022-11-23T01:33:44.990Z,100.00
2022-11-23T01:36:17.829Z,100.00
2022-11-23T01:38:46.212Z,100.00
2022-11-23T01:41:16.723Z,100.00
2022-11-23T01:43:44.261Z,100.00
2022-11-23T01:46:12.140Z,100.00
2022-11-23T01:48:55.772Z,100.00
2022-11-23T01:51:28.851Z,100.00
2022-11-23T01:54:00.921Z,100.00
2022-11-23T01:56:34.237Z,100.00
2022-11-23T01:59:04.838Z,100.00
2022-11-23T02:01:32.112Z,100.00
2022-11-23T02:04:01.122Z,100.00
2022-11-23T02:06:29.201Z,100.00
2022-11-23T02:08:56.512Z,100.00
2022-11-23T02:11:23.243Z,100.00
2022-11-23T02:13:51.272Z,100.00
2022-11-23T02:16:18.795Z,100.00
2022-11-23T02:18:48.472Z,100.00
2022-11-23T02:21:15.702Z,100.00
2022-11-23T02:23:52.314Z,100.00
2022-11-23T02:26:30.708Z,100.00
2022-11-23T02:29:03.474Z,100.00
2022-11-23T02:31:32.307Z,100.00
2022-11-23T02:33:59.058Z,100.00
2022-11-23T02:36:28.750Z,100.00
2022-11-23T02:38:57.893Z,100.00
2022-11-23T02:41:24.577Z,100.00
2022-11-23T02:43:56.633Z,100.00
2022-11-23T02:46:25.851Z,100.00
2022-11-23T02:48:52.650Z,100.00
2022-11-23T02:51:19.468Z,100.00
2022-11-23T02:53:46.169Z,100.00
2022-11-23T02:56:12.830Z,100.00
2022-11-23T02:58:39.541Z,100.00
2022-11-23T03:01:07.503Z,100.00
2022-11-23T03:03:34.298Z,100.00
2022-11-23T03:06:04.019Z,100.00
2022-11-23T03:08:32.530Z,100.00
2022-11-23T03:11:02.136Z,100.00
2022-11-23T03:13:30.038Z,100.00
2022-11-23T03:15:58.144Z,100.00
2022-11-23T03:18:26.757Z,100.00
2022-11-23T03:20:54.498Z,100.00
2022-11-23T03:23:21.312Z,100.00
2022-11-23T03:25:56.379Z,100.00
2022-11-23T03:28:24.666Z,100.00
2022-11-23T03:30:51.529Z,100.00
2022-11-23T03:33:18.949Z,100.00
2022-11-23T03:35:47.872Z,100.00
2022-11-23T03:38:24.321Z,100.00
2022-11-23T03:40:52.566Z,100.00
2022-11-23T03:43:23.177Z,100.00
2022-11-23T03:45:49.999Z,100.00
2022-11-23T03:48:16.992Z,100.00
2022-11-23T03:50:45.257Z,100.00
2022-11-23T03:53:12.621Z,100.00
2022-11-23T03:55:39.247Z,100.00
2022-11-23T03:58:06.030Z,100.00
2022-11-23T04:00:35.660Z,100.00
2022-11-23T04:03:03.688Z,100.00
2022-11-23T04:05:48.948Z,100.00
2022-11-23T04:08:35.953Z,100.00
2022-11-23T04:11:07.961Z,100.00
2022-11-23T04:13:39.227Z,100.00
2022-11-23T04:16:08.222Z,100.00
2022-11-23T04:18:35.341Z,100.00
2022-11-23T04:21:02.072Z,100.00
2022-11-23T04:23:28.740Z,100.00
2022-11-23T04:25:55.806Z,100.00
2022-11-23T04:28:23.665Z,100.00
2022-11-23T04:30:52.028Z,100.00
2022-11-23T04:33:19.316Z,100.00
2022-11-23T04:35:46.099Z,100.00
2022-11-23T04:38:13.766Z,100.00
2022-11-23T04:40:42.075Z,100.00
2022-11-23T04:43:09.680Z,100.00
2022-11-23T04:45:42.154Z,100.00
2022-11-23T04:48:17.180Z,100.00
2022-11-23T04:50:46.804Z,100.00
2022-11-23T04:53:19.493Z,100.00
2022-11-23T04:55:47.640Z,100.00
2022-11-23T04:58:16.002Z,100.00
2022-11-23T05:00:42.830Z,100.00
2022-11-23T05:03:11.294Z,100.00
2022-11-23T05:05:41.086Z,100.00
2022-11-23T05:08:09.453Z,100.00
2022-11-23T05:10:56.657Z,100.00
2022-11-23T05:13:24.577Z,100.00
2022-11-23T05:15:51.291Z,100.00
2022-11-23T05:18:24.465Z,100.00
2022-11-23T05:20:51.383Z,100.00
2022-11-23T05:23:18.297Z,100.00
2022-11-23T05:25:45.952Z,100.00
2022-11-23T05:28:38.976Z,100.00
2022-11-23T05:31:07.012Z,100.00
2022-11-23T05:33:34.092Z,100.00
2022-11-23T05:36:02.573Z,100.00
2022-11-23T05:38:36.507Z,100.00
2022-11-23T05:41:08.610Z,100.00
2022-11-23T05:43:38.490Z,100.00
2022-11-23T05:46:06.724Z,100.00
2022-11-23T05:48:35.650Z,100.00
2022-11-23T05:51:08.345Z,100.00
2022-11-23T05:53:38.668Z,100.00
2022-11-23T05:56:12.630Z,100.00
2022-11-23T05:58:52.297Z,100.00
2022-11-23T06:01:22.162Z,100.00
2022-11-23T06:03:51.568Z,100.00
2022-11-23T06:06:18.563Z,100.00
2022-11-23T06:08:49.015Z,100.00
2022-11-23T06:11:17.030Z,100.00
2022-11-23T06:13:47.602Z,100.00
2022-11-23T06:16:15.422Z,100.00
2022-11-23T06:18:53.758Z,100.00
2022-11-23T06:21:20.907Z,100.00
2022-11-23T06:23:48.155Z,100.00
2022-11-23T06:26:15.695Z,100.00
2022-11-23T06:28:42.640Z,100.00
2022-11-23T06:31:10.433Z,100.00
2022-11-23T06:33:38.133Z,100.00
2022-11-23T06:36:05.556Z,100.00
2022-11-23T06:38:39.656Z,100.00
2022-11-23T06:41:17.856Z,100.00
2022-11-23T06:43:47.614Z,100.00
2022-11-23T06:46:21.920Z,100.00
2022-11-23T06:48:48.923Z,100.00
2022-11-23T06:51:16.136Z,100.00
2022-11-23T06:53:44.832Z,100.00
2022-11-23T06:56:13.580Z,100.00
2022-11-23T06:58:40.422Z,100.00
2022-11-23T07:01:11.609Z,100.00
2022-11-23T07:03:47.928Z,100.00
2022-11-23T07:06:24.613Z,100.00
2022-11-23T07:08:55.676Z,100.00
2022-11-23T07:11:32.052Z,100.00
2022-11-23T07:13:58.816Z,100.00
2022-11-23T07:16:27.765Z,100.00
2022-11-23T07:18:54.738Z,100.00
2022-11-23T07:21:21.416Z,100.00
2022-11-23T07:23:49.219Z,100.00
2022-11-23T07:26:16.248Z,100.00
2022-11-23T07:28:43.012Z,100.00
2022-11-23T07:31:10.734Z,100.00
2022-11-23T07:33:37.998Z,100.00
2022-11-23T07:36:06.155Z,100.00
2022-11-23T07:38:33.429Z,99.70
2022-11-23T07:41:03.477Z,100.00
2022-11-23T07:43:51.140Z,100.00
2022-11-23T07:46:19.113Z,99.72
2022-11-23T07:48:45.936Z,100.00
2022-11-23T07:51:12.590Z,99.58
2022-11-23T07:53:39.288Z,99.35
2022-11-23T07:56:06.420Z,99.19
2022-11-23T07:58:33.186Z,99.30
2022-11-23T08:00:59.929Z,100.00
2022-11-23T08:03:28.617Z,98.68
2022-11-23T08:05:55.874Z,98.42
2022-11-23T08:08:22.605Z,97.89
2022-11-23T08:10:53.352Z,98.29
2022-11-23T08:13:21.002Z,98.79
2022-11-23T08:15:53.966Z,98.91
2022-11-23T08:18:22.395Z,98.82
2022-11-23T08:20:49.099Z,98.28
2022-11-23T08:23:15.801Z,97.87
2022-11-23T08:25:42.555Z,97.60
2022-11-23T08:28:09.368Z,97.20
2022-11-23T08:30:37.073Z,97.84
2022-11-23T08:33:07.895Z,97.22
2022-11-23T08:35:36.678Z,97.55
2022-11-23T08:38:08.102Z,97.00
2022-11-23T08:40:35.263Z,95.85
2022-11-23T08:43:02.293Z,94.49
2022-11-23T08:45:29.183Z,94.91
2022-11-23T08:48:00.923Z,94.67
2022-11-23T08:50:29.386Z,94.04
2022-11-23T08:52:57.544Z,92.90
2022-11-23T08:55:28.365Z,93.07
2022-11-23T08:57:59.182Z,92.87
2022-11-23T09:00:27.270Z,92.54
2022-11-23T09:02:54.415Z,91.81
2022-11-23T09:05:21.429Z,92.52
2022-11-23T09:07:48.676Z,92.08
2022-11-23T09:10:18.602Z,93.40
2022-11-23T09:12:47.042Z,92.20
2022-11-23T09:15:14.089Z,90.96
2022-11-23T09:17:40.800Z,92.32
2022-11-23T09:20:08.218Z,92.67
2022-11-23T09:22:34.938Z,92.35
2022-11-23T09:25:02.607Z,92.42
2022-11-23T09:27:29.796Z,92.99
2022-11-23T09:29:56.731Z,91.92
2022-11-23T09:32:23.402Z,92.03
2022-11-23T09:34:50.248Z,93.35
2022-11-23T09:37:16.894Z,93.11
2022-11-23T09:39:43.754Z,92.78
2022-11-23T09:42:41.212Z,92.12
2022-11-23T09:45:26.752Z,91.99
2022-11-23T09:48:04.968Z,92.88
2022-11-23T09:50:48.657Z,93.29
2022-11-23T09:53:38.882Z,92.18
2022-11-23T09:56:13.347Z,93.34
2022-11-23T09:58:41.187Z,93.48
2022-11-23T10:01:13.792Z,93.91
2022-11-23T10:03:48.186Z,92.83
2022-11-23T10:06:22.750Z,94.04
2022-11-23T10:08:55.170Z,94.99
2022-11-23T10:11:44.698Z,94.40
2022-11-23T10:14:30.470Z,94.86
2022-11-23T10:17:21.931Z,95.41
2022-11-23T10:20:00.450Z,96.72
2022-11-23T10:22:51.743Z,95.04
2022-11-23T10:25:20.706Z,93.07
2022-11-23T10:27:50.195Z,93.76
2022-11-23T10:30:19.287Z,91.98
2022-11-23T10:33:07.937Z,92.37
2022-11-23T10:35:35.647Z,92.53
2022-11-23T10:38:18.702Z,92.83
2022-11-23T10:40:51.748Z,92.73
2022-11-23T10:43:26.286Z,92.09
2022-11-23T10:46:31.730Z,91.74
2022-11-23T10:49:16.036Z,92.71
2022-11-23T10:51:53.730Z,92.03
2022-11-23T10:54:26.576Z,90.72
2022-11-23T10:56:54.457Z,90.77
2022-11-23T10:59:35.658Z,92.39
2022-11-23T11:02:16.526Z,91.66
2022-11-23T11:04:44.379Z,91.85
2022-11-23T11:07:31.598Z,91.79
2022-11-23T11:10:00.914Z,92.55
2022-11-23T11:12:29.354Z,92.44
2022-11-23T11:14:59.313Z,93.71
2022-11-23T11:17:36.123Z,93.92
2022-11-23T11:20:28.725Z,92.74
2022-11-23T11:22:57.330Z,93.20
2022-11-23T11:25:33.158Z,94.63
2022-11-23T11:28:00.410Z,94.56
2022-11-23T11:30:41.071Z,93.57
2022-11-23T11:33:18.188Z,94.23
2022-11-23T11:35:49.355Z,94.40
2022-11-23T11:38:37.405Z,94.76
2022-11-23T11:41:13.511Z,93.69
2022-11-23T11:43:58.374Z,92.86
2022-11-23T11:46:33.269Z,94.07
2022-11-23T11:49:05.849Z,95.58
2022-11-23T11:51:40.263Z,94.42
2022-11-23T11:54:42.706Z,92.50
2022-11-23T11:57:17.980Z,92.49
2022-11-23T11:59:48.726Z,92.72
2022-11-23T12:02:28.697Z,93.29
2022-11-23T12:05:14.120Z,93.00
2022-11-23T12:07:51.240Z,93.80
2022-11-23T12:10:18.283Z,94.92
2022-11-23T12:12:45.158Z,95.59
2022-11-23T12:15:47.375Z,96.05
2022-11-23T12:18:35.813Z,96.19
2022-11-23T12:21:44.603Z,94.82
2022-11-23T12:24:14.346Z,93.67
2022-11-23T12:27:25.202Z,96.06
2022-11-23T12:29:57.763Z,96.55
2022-11-23T12:32:36.812Z,96.53
2022-11-23T12:35:21.863Z,96.49
2022-11-23T12:38:30.882Z,95.61
2022-11-23T12:41:25.478Z,95.98
2022-11-23T12:44:22.121Z,95.43
2022-11-23T12:46:51.559Z,96.48
2022-11-23T12:49:38.964Z,97.33
2022-11-23T12:52:06.042Z,98.23
2022-11-23T12:55:01.274Z,98.88
2022-11-23T12:57:47.217Z,99.61
2022-11-23T13:00:20.633Z,100.00
2022-11-23T13:03:04.041Z,100.00
2022-11-23T13:06:00.938Z,100.00
2022-11-23T13:08:50.635Z,100.00
2022-11-23T13:11:35.870Z,100.00
2022-11-23T13:14:17.644Z,100.00
2022-11-23T13:17:09.349Z,100.00
2022-11-23T13:19:53.134Z,100.00
2022-11-23T13:22:22.647Z,100.00
2022-11-23T13:25:13.832Z,100.00
2022-11-23T13:27:49.321Z,100.00
2022-11-23T13:30:35.583Z,100.00
2022-11-23T13:33:23.609Z,100.00
2022-11-23T13:35:56.606Z,100.00
2022-11-23T13:38:26.172Z,100.00
2022-11-23T13:40:53.115Z,100.00
2022-11-23T13:43:29.038Z,100.00
2022-11-23T13:46:29.155Z,100.00
2022-11-23T13:48:59.547Z,100.00
2022-11-23T13:51:32.400Z,100.00
2022-11-23T13:54:05.210Z,100.00
2022-11-23T13:56:37.020Z,100.00
2022-11-23T13:59:22.641Z,100.00
2022-11-23T14:02:07.738Z,100.00
2022-11-23T14:04:38.921Z,100.00
2022-11-23T14:07:09.626Z,100.00
2022-11-23T14:09:44.260Z,100.00
2022-11-23T14:12:23.205Z,100.00
2022-11-23T14:15:15.506Z,100.00
2022-11-23T14:18:07.846Z,100.00
2022-11-23T14:20:49.670Z,100.00
2022-11-23T14:23:28.950Z,100.00
2022-11-23T14:26:21.843Z,100.00
2022-11-23T14:29:15.265Z,100.00
2022-11-23T14:32:03.782Z,100.00
2022-11-23T14:34:41.054Z,100.00
2022-11-23T14:37:15.022Z,100.00
2022-11-23T14:39:58.641Z,100.00
2022-11-23T14:42:28.469Z,100.00
2022-11-23T14:44:58.165Z,100.00
2022-11-23T14:47:27.767Z,100.00
2022-11-23T14:49:55.060Z,100.00
2022-11-23T14:52:26.351Z,100.00
2022-11-23T14:54:57.676Z,100.00
2022-11-23T14:57:29.171Z,100.00
2022-11-23T15:00:00.024Z,100.00
2022-11-23T15:02:39.604Z,100.00
2022-11-23T15:05:14.916Z,100.00
2022-11-23T15:07:44.114Z,100.00
2022-11-23T15:10:19.211Z,100.00
2022-11-23T15:12:48.498Z,100.00
2022-11-23T15:15:19.396Z,100.00
2022-11-23T15:18:00.149Z,100.00
2022-11-23T15:20:33.458Z,100.00
2022-11-23T15:23:01.764Z,100.00
2022-11-23T15:25:29.053Z,100.00
2022-11-23T15:27:56.025Z,100.00
2022-11-23T15:30:29.482Z,100.00
2022-11-23T15:33:01.716Z,100.00
2022-11-23T15:35:39.526Z,100.00
2022-11-23T15:38:17.730Z,100.00
2022-11-23T15:40:49.849Z,100.00
2022-11-23T15:43:19.020Z,100.00
2022-11-23T15:45:45.723Z,100.00
2022-11-23T15:48:19.179Z,100.00
2022-11-23T15:51:03.872Z,100.00
2022-11-23T15:53:51.264Z,100.00
2022-11-23T15:56:37.171Z,100.00
2022-11-23T15:59:30.255Z,100.00
2022-11-23T16:01:57.442Z,100.00
2022-11-23T16:04:39.431Z,100.00
2022-11-23T16:07:24.144Z,100.00
2022-11-23T16:10:12.536Z,99.86
2022-11-23T16:12:51.206Z,100.00
2022-11-23T16:15:40.839Z,100.00
2022-11-23T16:18:13.417Z,99.88
2022-11-23T16:20:50.007Z,100.00
2022-11-23T16:23:23.655Z,100.00
2022-11-23T16:25:57.991Z,100.00
2022-11-23T16:28:31.333Z,100.00
2022-11-23T16:30:59.368Z,100.00
2022-11-23T16:33:28.130Z,100.00
2022-11-23T16:35:54.913Z,100.00
2022-11-23T16:38:22.325Z,100.00
2022-11-23T16:40:49.364Z,100.00
2022-11-23T16:43:17.680Z,100.00
2022-11-23T16:45:46.931Z,100.00
2022-11-23T16:48:35.938Z,99.99
2022-11-23T16:51:02.631Z,100.00
2022-11-23T16:53:53.545Z,100.00
2022-11-23T16:56:27.798Z,99.81
2022-11-23T16:58:55.901Z,100.00
2022-11-23T17:01:26.642Z,100.00
2022-11-23T17:03:53.514Z,100.00
2022-11-23T17:06:23.498Z,100.00
2022-11-23T17:08:58.472Z,100.00
2022-11-23T17:11:27.921Z,100.00
2022-11-23T17:13:56.351Z,100.00
2022-11-23T17:16:25.439Z,100.00
2022-11-23T17:18:52.480Z,100.00
2022-11-23T17:21:19.155Z,100.00
2022-11-23T17:23:46.927Z,100.00
2022-11-23T17:26:31.473Z,100.00
2022-11-23T17:29:00.970Z,100.00
2022-11-23T17:31:27.684Z,100.00
2022-11-23T17:33:54.556Z,100.00
2022-11-23T17:36:21.283Z,100.00
2022-11-23T17:38:49.528Z,100.00
2022-11-23T17:41:16.729Z,100.00
2022-11-23T17:43:43.582Z,100.00
2022-11-23T17:46:20.538Z,100.00
2022-11-23T17:48:51.527Z,100.00
2022-11-23T17:51:18.237Z,100.00
2022-11-23T17:53:45.868Z,100.00
2022-11-23T17:56:18.168Z,100.00
2022-11-23T17:58:45.630Z,100.00
2022-11-23T18:01:33.363Z,100.00
2022-11-23T18:04:04.895Z,100.00
2022-11-23T18:06:32.045Z,100.00
2022-11-23T18:08:58.844Z,100.00
2022-11-23T18:11:25.797Z,100.00
2022-11-23T18:13:52.624Z,100.00
2022-11-23T18:16:20.605Z,100.00
2022-11-23T18:18:49.321Z,100.00
2022-11-23T18:21:16.903Z,100.00
2022-11-23T18:23:44.076Z,100.00
2022-11-23T18:26:16.829Z,100.00
2022-11-23T18:28:43.741Z,100.00
2022-11-23T18:31:10.552Z,100.00
2022-11-23T18:33:37.499Z,100.00
2022-11-23T18:36:05.706Z,100.00
2022-11-23T18:38:33.991Z,100.00
2022-11-23T18:41:01.004Z,100.00
2022-11-23T18:43:27.944Z,100.00
2022-11-23T18:45:54.836Z,100.00
2022-11-23T18:48:21.598Z,100.00
2022-11-23T18:50:48.836Z,100.00
2022-11-23T18:53:15.897Z,100.00
2022-11-23T18:55:42.677Z,99.52
2022-11-23T18:58:09.484Z,100.00
2022-11-23T19:00:36.428Z,99.01
2022-11-23T19:03:04.487Z,99.33
2022-11-23T19:05:33.839Z,98.59
2022-11-23T19:08:06.957Z,98.28
2022-11-23T19:10:36.129Z,99.01
2022-11-23T19:13:05.841Z,97.51
2022-11-23T19:15:33.806Z,97.35
2022-11-23T19:18:01.043Z,97.53
2022-11-23T19:20:29.414Z,97.94
2022-11-23T19:22:56.228Z,96.98
2022-11-23T19:25:23.456Z,96.17
2022-11-23T19:27:51.508Z,97.05
2022-11-23T19:30:18.752Z,96.65
2022-11-23T19:32:45.463Z,97.80
2022-11-23T19:35:12.356Z,98.79
2022-11-23T19:37:39.213Z,98.92
2022-11-23T19:40:06.617Z,98.25
2022-11-23T19:42:35.840Z,96.92
2022-11-23T19:45:03.667Z,97.14
2022-11-23T19:47:31.651Z,97.86
2022-11-23T19:49:59.307Z,98.32
2022-11-23T19:52:48.052Z,98.94
2022-11-23T19:55:16.458Z,99.07
2022-11-23T19:57:43.113Z,97.77
2022-11-23T20:00:10.496Z,98.14
2022-11-23T20:02:38.862Z,97.73
2022-11-23T20:05:06.712Z,97.07
2022-11-23T20:07:33.481Z,97.64
2022-11-23T20:10:00.345Z,97.74
2022-11-23T20:12:28.526Z,98.29
2022-11-23T20:14:55.257Z,98.13
2022-11-23T20:17:21.919Z,98.67
2022-11-23T20:19:50.686Z,99.17
2022-11-23T20:22:17.508Z,98.68
2022-11-23T20:24:45.707Z,98.03
2022-11-23T20:27:12.507Z,98.26
2022-11-23T20:29:40.301Z,97.95
2022-11-23T20:32:06.930Z,98.75
2022-11-23T20:34:39.666Z,98.35
2022-11-23T20:37:08.184Z,98.09
2022-11-23T20:39:37.651Z,97.45
2022-11-23T20:45:05.941Z,97.65
2022-11-23T20:47:32.958Z,97.90
2022-11-23T20:50:01.479Z,97.53
2022-11-23T20:52:28.545Z,97.45
2022-11-23T20:54:55.825Z,97.04
2022-11-23T20:57:22.518Z,97.49
2022-11-23T20:59:49.359Z,97.97
2022-11-23T21:02:19.086Z,98.14
2022-11-23T21:04:46.361Z,98.68
2022-11-23T21:07:13.174Z,98.78
2022-11-23T21:09:39.955Z,98.49
2022-11-23T21:12:24.864Z,97.84
2022-11-23T21:14:52.709Z,96.99
2022-11-23T21:17:20.281Z,97.08
2022-11-23T21:19:46.989Z,98.08
2022-11-23T21:22:17.023Z,97.91
2022-11-23T21:24:43.897Z,97.85
2022-11-23T21:27:13.245Z,96.66
2022-11-23T21:29:40.620Z,97.81
2022-11-23T21:32:07.341Z,97.28
2022-11-23T21:34:34.409Z,97.04
2022-11-23T21:37:01.694Z,96.93
2022-11-23T21:39:31.429Z,97.33
2022-11-23T21:41:58.333Z,96.88
2022-11-23T21:44:25.081Z,97.10
2022-11-23T21:46:52.170Z,97.32
2022-11-23T21:49:19.168Z,97.74
2022-11-23T21:51:46.090Z,97.63
2022-11-23T21:54:16.746Z,98.35
2022-11-23T21:56:46.542Z,98.54
2022-11-23T21:59:13.463Z,98.29
2022-11-23T22:01:41.335Z,98.32
2022-11-23T22:04:19.160Z,98.70
2022-11-23T22:06:46.050Z,99.40
2022-11-23T22:09:13.430Z,99.33
2022-11-23T22:11:42.456Z,98.66
2022-11-23T22:14:12.130Z,98.91
2022-11-23T22:16:41.923Z,99.07
2022-11-23T22:19:12.074Z,100.00
2022-11-23T22:21:40.421Z,99.16
2022-11-23T22:24:14.278Z,99.40
2022-11-23T22:26:41.567Z,99.70
2022-11-23T22:29:08.783Z,98.78
2022-11-23T22:31:36.197Z,98.46
2022-11-23T22:34:05.718Z,98.22
2022-11-23T22:36:35.265Z,98.19
2022-11-23T22:39:04.470Z,97.12
2022-11-23T22:41:37.096Z,96.98
2022-11-23T22:44:06.607Z,98.11
2022-11-23T22:46:33.542Z,98.20
2022-11-23T22:49:00.439Z,98.84
2022-11-23T22:51:28.986Z,99.43
2022-11-23T22:54:00.143Z,98.77
2022-11-23T22:56:28.850Z,98.39
2022-11-23T22:58:55.615Z,99.25
2022-11-23T23:01:26.477Z,99.87
2022-11-23T23:03:57.871Z,99.12
2022-11-23T23:06:25.682Z,98.54
2022-11-23T23:09:03.697Z,98.63
2022-11-23T23:11:31.466Z,98.45
2022-11-23T23:13:58.787Z,98.56
2022-11-23T23:16:26.477Z,98.66
2022-11-23T23:18:56.753Z,97.67
2022-11-23T23:21:27.439Z,97.03
2022-11-23T23:23:56.517Z,97.42
2022-11-23T23:26:25.157Z,97.50
2022-11-23T23:28:56.551Z,97.02
2022-11-23T23:31:23.857Z,97.48
2022-11-23T23:33:51.142Z,97.53
2022-11-23T23:36:20.953Z,96.15
2022-11-23T23:38:48.038Z,96.43
2022-11-23T23:41:15.428Z,95.38
2022-11-23T23:43:42.929Z,95.68
2022-11-23T23:46:12.306Z,96.06
2022-11-23T23:48:40.362Z,96.64
2022-11-23T23:51:11.452Z,96.60
2022-11-23T23:53:38.655Z,96.46
2022-11-23T23:56:16.712Z,96.51
2022-11-23T23:58:44.566Z,96.95
